sensor_id;sensor_type;location;lat;lon;timestamp;temperature;humidity
52267;DHT22;38223;50.940;4.034;2023-08-06T00:02:30;16.40;99.90
52267;DHT22;38223;50.940;4.034;2023-08-06T00:04:59;16.40;99.90
52267;DHT22;38223;50.940;4.034;2023-08-06T00:07:27;16.60;99.90
52267;DHT22;38223;50.940;4.034;2023-08-06T00:09:58;16.60;99.90
52267;DHT22;38223;50.940;4.034;2023-08-06T00:12:29;16.70;99.90
52267;DHT22;38223;50.940;4.034;2023-08-06T00:14:59;16.50;99.90
52267;DHT22;38223;50.940;4.034;2023-08-06T00:17:31;16.50;99.90
52267;DHT22;38223;50.940;4.034;2023-08-06T00:20:00;16.40;99.90
52267;DHT22;38223;50.940;4.034;2023-08-06T00:22:30;16.60;99.90
52267;DHT22;38223;50.940;4.034;2023-08-06T00:25:02;16.60;99.90
52267;DHT22;38223;50.940;4.034;2023-08-06T00:27:33;16.60;99.90
52267;DHT22;38223;50.940;4.034;2023-08-06T00:30:05;16.60;99.90
52267;DHT22;38223;50.940;4.034;2023-08-06T00:32:33;16.70;99.90
52267;DHT22;38223;50.940;4.034;2023-08-06T00:35:01;16.60;99.90
52267;DHT22;38223;50.940;4.034;2023-08-06T00:37:31;16.50;99.90
52267;DHT22;38223;50.940;4.034;2023-08-06T00:40:01;16.50;99.90
52267;DHT22;38223;50.940;4.034;2023-08-06T00:42:30;16.80;99.90
52267;DHT22;38223;50.940;4.034;2023-08-06T00:45:06;16.80;99.90
52267;DHT22;38223;50.940;4.034;2023-08-06T00:47:35;16.90;99.90
52267;DHT22;38223;50.940;4.034;2023-08-06T00:50:06;16.70;99.90
52267;DHT22;38223;50.940;4.034;2023-08-06T00:52:34;16.60;99.90
52267;DHT22;38223;50.940;4.034;2023-08-06T00:55:02;16.60;99.90
52267;DHT22;38223;50.940;4.034;2023-08-06T00:57:32;16.50;99.90
52267;DHT22;38223;50.940;4.034;2023-08-06T01:00:02;16.60;99.90
52267;DHT22;38223;50.940;4.034;2023-08-06T01:02:34;16.60;99.90
52267;DHT22;38223;50.940;4.034;2023-08-06T01:05:04;16.70;99.90
52267;DHT22;38223;50.940;4.034;2023-08-06T01:12:49;16.80;99.90
52267;DHT22;38223;50.940;4.034;2023-08-06T01:15:28;16.60;99.90
52267;DHT22;38223;50.940;4.034;2023-08-06T01:17:57;16.60;99.90
52267;DHT22;38223;50.940;4.034;2023-08-06T01:20:30;16.80;99.90
52267;DHT22;38223;50.940;4.034;2023-08-06T01:23:00;16.60;99.90
52267;DHT22;38223;50.940;4.034;2023-08-06T01:25:33;16.70;99.90
52267;DHT22;38223;50.940;4.034;2023-08-06T01:28:02;16.80;99.90
52267;DHT22;38223;50.940;4.034;2023-08-06T01:30:29;16.70;99.90
52267;DHT22;38223;50.940;4.034;2023-08-06T01:33:02;16.50;99.90
52267;DHT22;38223;50.940;4.034;2023-08-06T01:35:29;16.40;99.90
52267;DHT22;38223;50.940;4.034;2023-08-06T01:38:00;16.40;99.90
52267;DHT22;38223;50.940;4.034;2023-08-06T01:40:29;16.40;99.90
52267;DHT22;38223;50.940;4.034;2023-08-06T01:42:58;16.40;99.90
52267;DHT22;38223;50.940;4.034;2023-08-06T01:45:28;16.40;99.90
52267;DHT22;38223;50.940;4.034;2023-08-06T01:47:56;16.40;99.90
52267;DHT22;38223;50.940;4.034;2023-08-06T01:50:25;16.30;99.90
52267;DHT22;38223;50.940;4.034;2023-08-06T01:52:55;16.20;99.90
52267;DHT22;38223;50.940;4.034;2023-08-06T01:55:25;16.20;99.90
52267;DHT22;38223;50.940;4.034;2023-08-06T01:57:56;16.10;99.90
52267;DHT22;38223;50.940;4.034;2023-08-06T02:00:28;16.10;99.90
52267;DHT22;38223;50.940;4.034;2023-08-06T02:02:56;16.10;99.90
52267;DHT22;38223;50.940;4.034;2023-08-06T02:05:28;16.20;99.90
52267;DHT22;38223;50.940;4.034;2023-08-06T02:07:55;16.20;99.90
52267;DHT22;38223;50.940;4.034;2023-08-06T02:10:24;16.20;99.90
52267;DHT22;38223;50.940;4.034;2023-08-06T02:12:54;16.00;99.90
52267;DHT22;38223;50.940;4.034;2023-08-06T02:15:23;16.10;99.90
52267;DHT22;38223;50.940;4.034;2023-08-06T02:17:51;16.00;99.90
52267;DHT22;38223;50.940;4.034;2023-08-06T02:20:21;16.00;99.90
52267;DHT22;38223;50.940;4.034;2023-08-06T02:22:50;15.90;99.90
52267;DHT22;38223;50.940;4.034;2023-08-06T02:25:23;15.90;99.90
52267;DHT22;38223;50.940;4.034;2023-08-06T02:27:52;15.90;99.90
52267;DHT22;38223;50.940;4.034;2023-08-06T02:30:23;15.70;99.90
52267;DHT22;38223;50.940;4.034;2023-08-06T02:32:51;15.60;99.90
52267;DHT22;38223;50.940;4.034;2023-08-06T02:35:22;15.60;99.90
52267;DHT22;38223;50.940;4.034;2023-08-06T02:37:52;15.70;99.90
52267;DHT22;38223;50.940;4.034;2023-08-06T02:40:24;15.60;99.90
52267;DHT22;38223;50.940;4.034;2023-08-06T02:42:57;15.50;99.90
52267;DHT22;38223;50.940;4.034;2023-08-06T02:45:29;15.60;99.90
52267;DHT22;38223;50.940;4.034;2023-08-06T02:48:00;15.60;99.90
52267;DHT22;38223;50.940;4.034;2023-08-06T02:50:29;15.70;99.90
52267;DHT22;38223;50.940;4.034;2023-08-06T02:52:59;15.70;99.90
52267;DHT22;38223;50.940;4.034;2023-08-06T02:55:29;15.60;99.90
52267;DHT22;38223;50.940;4.034;2023-08-06T02:57:59;15.50;99.90
52267;DHT22;38223;50.940;4.034;2023-08-06T03:00:30;15.40;99.90
52267;DHT22;38223;50.940;4.034;2023-08-06T03:03:02;15.30;99.90
52267;DHT22;38223;50.940;4.034;2023-08-06T03:05:31;15.20;99.90
52267;DHT22;38223;50.940;4.034;2023-08-06T03:08:01;15.20;99.90
52267;DHT22;38223;50.940;4.034;2023-08-06T03:10:30;15.30;99.90
52267;DHT22;38223;50.940;4.034;2023-08-06T03:13:00;15.30;99.90
52267;DHT22;38223;50.940;4.034;2023-08-06T03:15:31;15.30;99.90
52267;DHT22;38223;50.940;4.034;2023-08-06T03:18:01;15.20;99.90
52267;DHT22;38223;50.940;4.034;2023-08-06T03:20:32;15.10;99.90
52267;DHT22;38223;50.940;4.034;2023-08-06T03:25:47;15.00;99.90
52267;DHT22;38223;50.940;4.034;2023-08-06T03:28:16;14.90;99.90
52267;DHT22;38223;50.940;4.034;2023-08-06T03:30:44;14.70;99.90
52267;DHT22;38223;50.940;4.034;2023-08-06T03:33:11;14.60;99.90
52267;DHT22;38223;50.940;4.034;2023-08-06T03:35:43;14.60;99.90
52267;DHT22;38223;50.940;4.034;2023-08-06T03:38:14;14.50;99.90
52267;DHT22;38223;50.940;4.034;2023-08-06T03:40:43;14.50;99.90
52267;DHT22;38223;50.940;4.034;2023-08-06T03:43:13;14.60;99.90
52267;DHT22;38223;50.940;4.034;2023-08-06T03:45:44;14.50;99.90
52267;DHT22;38223;50.940;4.034;2023-08-06T03:48:18;14.50;99.90
52267;DHT22;38223;50.940;4.034;2023-08-06T03:50:46;14.60;99.90
52267;DHT22;38223;50.940;4.034;2023-08-06T03:53:14;14.50;99.90
52267;DHT22;38223;50.940;4.034;2023-08-06T03:55:44;14.50;99.90
52267;DHT22;38223;50.940;4.034;2023-08-06T03:58:15;14.50;99.90
52267;DHT22;38223;50.940;4.034;2023-08-06T04:00:42;14.50;99.90
52267;DHT22;38223;50.940;4.034;2023-08-06T04:03:13;14.40;99.90
52267;DHT22;38223;50.940;4.034;2023-08-06T04:05:41;14.40;99.90
52267;DHT22;38223;50.940;4.034;2023-08-06T04:08:11;14.40;99.90
52267;DHT22;38223;50.940;4.034;2023-08-06T04:10:39;14.40;99.90
52267;DHT22;38223;50.940;4.034;2023-08-06T04:13:10;14.30;99.90
52267;DHT22;38223;50.940;4.034;2023-08-06T04:15:40;14.30;99.90
52267;DHT22;38223;50.940;4.034;2023-08-06T04:18:09;14.30;99.90
52267;DHT22;38223;50.940;4.034;2023-08-06T04:20:46;14.30;99.90
52267;DHT22;38223;50.940;4.034;2023-08-06T04:23:14;14.30;99.90
52267;DHT22;38223;50.940;4.034;2023-08-06T04:25:46;14.30;99.90
52267;DHT22;38223;50.940;4.034;2023-08-06T04:28:14;14.20;99.90
52267;DHT22;38223;50.940;4.034;2023-08-06T04:30:42;14.20;99.90
52267;DHT22;38223;50.940;4.034;2023-08-06T04:33:14;14.10;99.90
52267;DHT22;38223;50.940;4.034;2023-08-06T04:35:45;14.20;99.90
52267;DHT22;38223;50.940;4.034;2023-08-06T04:38:14;14.20;99.90
52267;DHT22;38223;50.940;4.034;2023-08-06T04:40:42;14.20;99.90
52267;DHT22;38223;50.940;4.034;2023-08-06T04:43:12;14.30;99.90
52267;DHT22;38223;50.940;4.034;2023-08-06T04:45:53;14.40;99.90
52267;DHT22;38223;50.940;4.034;2023-08-06T04:48:22;14.40;99.90
52267;DHT22;38223;50.940;4.034;2023-08-06T04:50:54;14.40;99.90
52267;DHT22;38223;50.940;4.034;2023-08-06T04:53:22;14.40;99.90
52267;DHT22;38223;50.940;4.034;2023-08-06T04:55:52;14.50;99.90
52267;DHT22;38223;50.940;4.034;2023-08-06T04:58:21;14.50;99.90
52267;DHT22;38223;50.940;4.034;2023-08-06T05:00:52;14.50;99.90
52267;DHT22;38223;50.940;4.034;2023-08-06T05:03:25;14.40;99.90
52267;DHT22;38223;50.940;4.034;2023-08-06T05:05:55;14.60;99.90
52267;DHT22;38223;50.940;4.034;2023-08-06T05:08:25;14.70;99.90
52267;DHT22;38223;50.940;4.034;2023-08-06T05:10:56;14.70;99.90
52267;DHT22;38223;50.940;4.034;2023-08-06T05:13:29;14.70;99.90
52267;DHT22;38223;50.940;4.034;2023-08-06T05:15:58;14.70;99.90
52267;DHT22;38223;50.940;4.034;2023-08-06T05:18:29;14.60;99.90
52267;DHT22;38223;50.940;4.034;2023-08-06T05:20:59;14.60;99.90
52267;DHT22;38223;50.940;4.034;2023-08-06T05:23:28;14.40;99.90
52267;DHT22;38223;50.940;4.034;2023-08-06T05:26:00;14.50;99.90
52267;DHT22;38223;50.940;4.034;2023-08-06T05:28:31;14.50;99.90
52267;DHT22;38223;50.940;4.034;2023-08-06T05:31:04;14.50;99.90
52267;DHT22;38223;50.940;4.034;2023-08-06T05:33:32;14.30;99.90
52267;DHT22;38223;50.940;4.034;2023-08-06T05:38:49;14.30;99.90
52267;DHT22;38223;50.940;4.034;2023-08-06T05:41:19;14.40;99.90
52267;DHT22;38223;50.940;4.034;2023-08-06T05:43:49;14.50;99.90
52267;DHT22;38223;50.940;4.034;2023-08-06T05:46:18;14.60;99.90
52267;DHT22;38223;50.940;4.034;2023-08-06T05:48:46;14.60;99.90
52267;DHT22;38223;50.940;4.034;2023-08-06T05:51:18;14.50;99.90
52267;DHT22;38223;50.940;4.034;2023-08-06T05:53:49;14.50;99.90
52267;DHT22;38223;50.940;4.034;2023-08-06T05:56:21;14.70;99.90
52267;DHT22;38223;50.940;4.034;2023-08-06T05:58:54;14.70;99.90
52267;DHT22;38223;50.940;4.034;2023-08-06T06:01:23;14.90;99.90
52267;DHT22;38223;50.940;4.034;2023-08-06T06:03:50;14.90;99.90
52267;DHT22;38223;50.940;4.034;2023-08-06T06:06:21;14.80;99.90
52267;DHT22;38223;50.940;4.034;2023-08-06T06:08:53;14.90;99.90
52267;DHT22;38223;50.940;4.034;2023-08-06T06:11:24;15.00;99.90
52267;DHT22;38223;50.940;4.034;2023-08-06T06:13:54;15.00;99.90
52267;DHT22;38223;50.940;4.034;2023-08-06T06:16:23;15.10;99.90
